sensor_id;sensor_type;location;lat;lon;timestamp;pressure;altitude;pressure_sealevel;temperature;humidity
63715;BME280;49858;48.956;9.076;2023-04-04T00:00:28;99638.03;;;4.76;73.33
63715;BME280;49858;48.956;9.076;2023-04-04T00:02:56;99629.19;;;4.84;74.46
63715;BME280;49858;48.956;9.076;2023-04-04T00:05:24;99633.19;;;5.24;71.35
63715;BME280;49858;48.956;9.076;2023-04-04T00:07:53;99623.09;;;5.25;71.68
63715;BME280;49858;48.956;9.076;2023-04-04T00:10:21;99615.66;;;5.11;72.62
63715;BME280;49858;48.956;9.076;2023-04-04T00:12:49;99614.19;;;4.68;75.08
63715;BME280;49858;48.956;9.076;2023-04-04T00:15:17;99611.94;;;4.51;74.97
63715;BME280;49858;48.956;9.076;2023-04-04T00:17:45;99622.91;;;4.03;80.28
63715;BME280;49858;48.956;9.076;2023-04-04T00:20:13;99607.09;;;4.48;78.23
63715;BME280;49858;48.956;9.076;2023-04-04T00:22:41;99617.53;;;4.41;76.44
63715;BME280;49858;48.956;9.076;2023-04-04T00:25:10;99618.28;;;4.46;76.33
63715;BME280;49858;48.956;9.076;2023-04-04T00:27:38;99608.94;;;4.52;75.37
63715;BME280;49858;48.956;9.076;2023-04-04T00:30:08;99603.44;;;4.57;77.07
63715;BME280;49858;48.956;9.076;2023-04-04T00:32:37;99603.03;;;4.45;76.10
63715;BME280;49858;48.956;9.076;2023-04-04T00:35:06;99609.72;;;4.15;75.80
63715;BME280;49858;48.956;9.076;2023-04-04T00:37:34;99605.13;;;4.10;77.53
63715;BME280;49858;48.956;9.076;2023-04-04T00:40:04;99598.41;;;4.46;77.02
63715;BME280;49858;48.956;9.076;2023-04-04T00:42:33;99598.94;;;3.81;78.96
63715;BME280;49858;48.956;9.076;2023-04-04T00:45:01;99597.66;;;4.59;75.83
63715;BME280;49858;48.956;9.076;2023-04-04T00:47:29;99595.81;;;4.73;74.48
63715;BME280;49858;48.956;9.076;2023-04-04T00:49:57;99595.28;;;5.09;71.22
63715;BME280;49858;48.956;9.076;2023-04-04T00:52:25;99590.75;;;4.85;71.94
63715;BME280;49858;48.956;9.076;2023-04-04T00:54:54;99590.34;;;4.92;72.17
63715;BME280;49858;48.956;9.076;2023-04-04T00:57:22;99590.75;;;4.48;74.02
63715;BME280;49858;48.956;9.076;2023-04-04T00:59:52;99580.78;;;4.95;71.08
63715;BME280;49858;48.956;9.076;2023-04-04T01:02:22;99584.41;;;4.33;72.66
63715;BME280;49858;48.956;9.076;2023-04-04T01:04:50;99584.41;;;4.33;76.12
63715;BME280;49858;48.956;9.076;2023-04-04T01:07:18;99584.75;;;3.84;79.09
63715;BME280;49858;48.956;9.076;2023-04-04T01:09:49;99585.72;;;4.17;75.77
63715;BME280;49858;48.956;9.076;2023-04-04T01:12:17;99580.41;;;3.59;77.56
63715;BME280;49858;48.956;9.076;2023-04-04T01:14:46;99589.81;;;3.14;79.61
63715;BME280;49858;48.956;9.076;2023-04-04T01:17:15;99576.28;;;3.85;77.27
63715;BME280;49858;48.956;9.076;2023-04-04T01:19:47;99587.47;;;3.84;79.53
63715;BME280;49858;48.956;9.076;2023-04-04T01:22:19;99586.72;;;3.54;79.09
63715;BME280;49858;48.956;9.076;2023-04-04T01:24:48;99586.97;;;3.82;79.49
63715;BME280;49858;48.956;9.076;2023-04-04T01:27:18;99582.53;;;3.09;80.67
63715;BME280;49858;48.956;9.076;2023-04-04T01:29:53;99583.03;;;3.69;79.60
63715;BME280;49858;48.956;9.076;2023-04-04T01:32:26;99584.13;;;3.68;79.26
63715;BME280;49858;48.956;9.076;2023-04-04T01:34:59;99583.38;;;3.33;81.27
63715;BME280;49858;48.956;9.076;2023-04-04T01:37:33;99577.88;;;3.68;80.45
63715;BME280;49858;48.956;9.076;2023-04-04T01:40:08;99578.63;;;3.49;81.31
63715;BME280;49858;48.956;9.076;2023-04-04T01:42:41;99578.09;;;3.71;79.49
63715;BME280;49858;48.956;9.076;2023-04-04T01:45:11;99573.69;;;3.75;81.15
63715;BME280;49858;48.956;9.076;2023-04-04T01:47:40;99572.72;;;3.13;82.22
63715;BME280;49858;48.956;9.076;2023-04-04T01:50:13;99579.53;;;3.40;83.73
63715;BME280;49858;48.956;9.076;2023-04-04T01:52:42;99570.28;;;3.65;83.20
63715;BME280;49858;48.956;9.076;2023-04-04T01:55:10;99572.88;;;3.51;82.57
63715;BME280;49858;48.956;9.076;2023-04-04T01:57:40;99574.75;;;3.26;84.28
63715;BME280;49858;48.956;9.076;2023-04-04T02:00:10;99568.16;;;3.32;84.05
63715;BME280;49858;48.956;9.076;2023-04-04T02:02:47;99564.09;;;3.59;84.32
63715;BME280;49858;48.956;9.076;2023-04-04T02:05:15;99572.56;;;3.28;84.34
63715;BME280;49858;48.956;9.076;2023-04-04T02:07:46;99565.31;;;3.19;85.79
63715;BME280;49858;48.956;9.076;2023-04-04T02:10:22;99561.94;;;3.03;88.14
63715;BME280;49858;48.956;9.076;2023-04-04T02:12:52;99563.34;;;3.24;87.02
63715;BME280;49858;48.956;9.076;2023-04-04T02:15:21;99567.44;;;2.93;88.38
63715;BME280;49858;48.956;9.076;2023-04-04T02:17:49;99567.28;;;3.13;86.73
63715;BME280;49858;48.956;9.076;2023-04-04T02:20:18;99573.69;;;2.93;88.70
63715;BME280;49858;48.956;9.076;2023-04-04T02:22:50;99567.97;;;3.24;87.37
63715;BME280;49858;48.956;9.076;2023-04-04T02:25:18;99567.44;;;2.93;88.35
63715;BME280;49858;48.956;9.076;2023-04-04T02:27:46;99568.41;;;3.07;87.35
63715;BME280;49858;48.956;9.076;2023-04-04T02:30:16;99561.47;;;2.91;88.76
63715;BME280;49858;48.956;9.076;2023-04-04T02:32:45;99557.44;;;3.17;87.46
63715;BME280;49858;48.956;9.076;2023-04-04T02:35:17;99562.56;;;3.48;86.89
63715;BME280;49858;48.956;9.076;2023-04-04T02:37:45;99565.94;;;3.11;87.92
63715;BME280;49858;48.956;9.076;2023-04-04T02:40:32;99570.88;;;3.32;87.74
63715;BME280;49858;48.956;9.076;2023-04-04T02:43:01;99557.03;;;3.58;86.24
63715;BME280;49858;48.956;9.076;2023-04-04T02:45:30;99563.31;;;3.29;87.65
63715;BME280;49858;48.956;9.076;2023-04-04T02:48:09;99553.75;;;2.74;90.65
63715;BME280;49858;48.956;9.076;2023-04-04T02:50:44;99553.53;;;2.99;90.72
63715;BME280;49858;48.956;9.076;2023-04-04T02:53:13;99555.06;;;3.11;89.99
63715;BME280;49858;48.956;9.076;2023-04-04T02:55:43;99544.75;;;2.78;89.51
63715;BME280;49858;48.956;9.076;2023-04-04T02:58:12;99551.59;;;3.34;87.92
63715;BME280;49858;48.956;9.076;2023-04-04T03:00:41;99547.16;;;3.38;88.55
63715;BME280;49858;48.956;9.076;2023-04-04T03:03:09;99546.97;;;3.58;86.61
63715;BME280;49858;48.956;9.076;2023-04-04T03:05:42;99549.03;;;3.43;85.90
63715;BME280;49858;48.956;9.076;2023-04-04T03:08:10;99554.38;;;3.53;84.86
63715;BME280;49858;48.956;9.076;2023-04-04T03:10:38;99554.13;;;3.25;85.64
63715;BME280;49858;48.956;9.076;2023-04-04T03:13:06;99546.59;;;3.41;85.18
63715;BME280;49858;48.956;9.076;2023-04-04T03:15:35;99549.75;;;2.95;86.21
63715;BME280;49858;48.956;9.076;2023-04-04T03:18:04;99547.72;;;3.11;87.97
63715;BME280;49858;48.956;9.076;2023-04-04T03:20:33;99547.09;;;2.90;86.46
63715;BME280;49858;48.956;9.076;2023-04-04T03:23:01;99544.47;;;3.09;88.94
63715;BME280;49858;48.956;9.076;2023-04-04T03:25:28;99541.97;;;2.84;90.27
63715;BME280;49858;48.956;9.076;2023-04-04T03:27:56;99548.78;;;2.47;91.86
63715;BME280;49858;48.956;9.076;2023-04-04T03:30:25;99549.56;;;2.87;91.08
63715;BME280;49858;48.956;9.076;2023-04-04T03:32:54;99549.88;;;2.80;89.11
63715;BME280;49858;48.956;9.076;2023-04-04T03:35:23;99551.19;;;3.17;88.72
63715;BME280;49858;48.956;9.076;2023-04-04T03:37:52;99550.25;;;3.31;87.81
63715;BME280;49858;48.956;9.076;2023-04-04T03:40:21;99543.94;;;3.36;86.68
63715;BME280;49858;48.956;9.076;2023-04-04T03:42:50;99546.13;;;3.05;87.87
63715;BME280;49858;48.956;9.076;2023-04-04T03:45:18;99547.50;;;3.31;86.71
63715;BME280;49858;48.956;9.076;2023-04-04T03:47:47;99550.69;;;3.39;86.76
63715;BME280;49858;48.956;9.076;2023-04-04T03:50:16;99545.78;;;3.41;86.97
63715;BME280;49858;48.956;9.076;2023-04-04T03:52:51;99542.91;;;3.03;87.73
63715;BME280;49858;48.956;9.076;2023-04-04T03:55:18;99542.63;;;2.70;89.85
63715;BME280;49858;48.956;9.076;2023-04-04T03:57:46;99541.78;;;3.04;88.96
63715;BME280;49858;48.956;9.076;2023-04-04T04:00:16;99539.78;;;3.15;88.83
63715;BME280;49858;48.956;9.076;2023-04-04T04:02:44;99551.06;;;3.03;88.08
63715;BME280;49858;48.956;9.076;2023-04-04T04:05:12;99543.25;;;2.91;88.10
63715;BME280;49858;48.956;9.076;2023-04-04T04:07:42;99551.06;;;3.03;87.53
63715;BME280;49858;48.956;9.076;2023-04-04T04:10:11;99552.09;;;3.07;87.07
63715;BME280;49858;48.956;9.076;2023-04-04T04:12:40;99546.84;;;2.87;89.06
63715;BME280;49858;48.956;9.076;2023-04-04T04:15:09;99558.09;;;2.36;90.88
63715;BME280;49858;48.956;9.076;2023-04-04T04:17:39;99551.09;;;2.24;92.43
63715;BME280;49858;48.956;9.076;2023-04-04T04:20:10;99545.22;;;2.86;89.90
63715;BME280;49858;48.956;9.076;2023-04-04T04:22:48;99546.72;;;2.68;89.48
63715;BME280;49858;48.956;9.076;2023-04-04T04:25:21;99554.09;;;2.62;90.90
63715;BME280;49858;48.956;9.076;2023-04-04T04:28:08;99557.31;;;2.69;91.17
63715;BME280;49858;48.956;9.076;2023-04-04T04:30:38;99561.13;;;2.68;88.13
63715;BME280;49858;48.956;9.076;2023-04-04T04:33:07;99557.84;;;3.00;88.07
63715;BME280;49858;48.956;9.076;2023-04-04T04:35:43;99559.06;;;3.18;86.53
63715;BME280;49858;48.956;9.076;2023-04-04T04:38:12;99554.56;;;3.32;86.73
63715;BME280;49858;48.956;9.076;2023-04-04T04:40:42;99550.00;;;3.28;86.37
63715;BME280;49858;48.956;9.076;2023-04-04T04:43:16;99559.88;;;2.90;88.30
63715;BME280;49858;48.956;9.076;2023-04-04T04:45:47;99553.47;;;3.04;87.90
63715;BME280;49858;48.956;9.076;2023-04-04T04:48:16;99553.88;;;3.22;87.13
63715;BME280;49858;48.956;9.076;2023-04-04T04:50:49;99554.91;;;3.26;87.56
63715;BME280;49858;48.956;9.076;2023-04-04T04:53:28;99555.53;;;3.18;86.17
63715;BME280;49858;48.956;9.076;2023-04-04T04:55:59;99561.13;;;2.68;90.17
63715;BME280;49858;48.956;9.076;2023-04-04T04:58:28;99555.72;;;3.26;87.08
63715;BME280;49858;48.956;9.076;2023-04-04T05:00:58;99561.31;;;3.40;86.46
63715;BME280;49858;48.956;9.076;2023-04-04T05:03:34;99560.78;;;3.62;84.79
63715;BME280;49858;48.956;9.076;2023-04-04T05:06:05;99562.09;;;2.83;85.77
63715;BME280;49858;48.956;9.076;2023-04-04T05:08:34;99568.06;;;3.14;87.21
63715;BME280;49858;48.956;9.076;2023-04-04T05:11:13;99566.69;;;2.82;90.13
63715;BME280;49858;48.956;9.076;2023-04-04T05:13:41;99567.50;;;3.17;88.67
63715;BME280;49858;48.956;9.076;2023-04-04T05:16:10;99566.91;;;3.25;87.22
63715;BME280;49858;48.956;9.076;2023-04-04T05:18:42;99568.88;;;3.14;87.88
63715;BME280;49858;48.956;9.076;2023-04-04T05:21:11;99563.16;;;3.45;86.56
63715;BME280;49858;48.956;9.076;2023-04-04T05:23:40;99563.59;;;3.28;85.39
63715;BME280;49858;48.956;9.076;2023-04-04T05:26:07;99563.84;;;2.24;91.31
63715;BME280;49858;48.956;9.076;2023-04-04T05:28:39;99564.75;;;2.53;93.39
63715;BME280;49858;48.956;9.076;2023-04-04T05:31:07;99572.16;;;2.43;93.00
63715;BME280;49858;48.956;9.076;2023-04-04T05:33:36;99565.16;;;3.05;91.30
63715;BME280;49858;48.956;9.076;2023-04-04T05:36:11;99558.09;;;3.04;91.05
63715;BME280;49858;48.956;9.076;2023-04-04T05:38:45;99566.16;;;3.14;88.75
63715;BME280;49858;48.956;9.076;2023-04-04T05:41:16;99572.69;;;3.42;87.33
63715;BME280;49858;48.956;9.076;2023-04-04T05:43:46;99564.00;;;3.16;89.85
63715;BME280;49858;48.956;9.076;2023-04-04T05:46:19;99564.19;;;2.91;89.24
63715;BME280;49858;48.956;9.076;2023-04-04T05:48:50;99570.28;;;3.12;88.02
63715;BME280;49858;48.956;9.076;2023-04-04T05:51:19;99573.31;;;3.63;85.59
63715;BME280;49858;48.956;9.076;2023-04-04T05:53:54;99576.53;;;3.89;85.53
63715;BME280;49858;48.956;9.076;2023-04-04T05:56:27;99568.13;;;3.85;84.68
63715;BME280;49858;48.956;9.076;2023-04-04T05:58:59;99580.59;;;3.68;84.09
63715;BME280;49858;48.956;9.076;2023-04-04T06:01:31;99573.31;;;3.63;84.96
63715;BME280;49858;48.956;9.076;2023-04-04T06:04:08;99581.72;;;3.38;85.19
63715;BME280;49858;48.956;9.076;2023-04-04T06:06:36;99575.50;;;3.61;84.60
63715;BME280;49858;48.956;9.076;2023-04-04T06:09:04;99582.47;;;3.43;87.52
63715;BME280;49858;48.956;9.076;2023-04-04T06:11:34;99587.09;;;3.43;86.02
63715;BME280;49858;48.956;9.076;2023-04-04T06:14:07;99586.38;;;3.61;85.54
63715;BME280;49858;48.956;9.076;2023-04-04T06:16:35;99576.03;;;3.63;86.45
63715;BME280;49858;48.956;9.076;2023-04-04T06:19:05;99594.66;;;3.99;85.37
63715;BME280;49858;48.956;9.076;2023-04-04T06:21:33;99582.03;;;3.84;86.71
63715;BME280;49858;48.956;9.076;2023-04-04T06:24:01;99584.94;;;3.16;90.78
63715;BME280;49858;48.956;9.076;2023-04-04T06:26:29;99583.31;;;3.68;86.79
63715;BME280;49858;48.956;9.076;2023-04-04T06:29:00;99595.06;;;3.87;88.01
63715;BME280;49858;48.956;9.076;2023-04-04T06:31:36;99587.81;;;4.63;81.48
63715;BME280;49858;48.956;9.076;2023-04-04T06:34:08;99587.72;;;4.49;79.70
63715;BME280;49858;48.956;9.076;2023-04-04T06:36:49;99589.69;;;3.58;86.59
63715;BME280;49858;48.956;9.076;2023-04-04T06:39:17;99586.88;;;3.39;85.85
63715;BME280;49858;48.956;9.076;2023-04-04T06:41:47;99582.34;;;4.25;82.82
63715;BME280;49858;48.956;9.076;2023-04-04T06:44:15;99583.81;;;4.74;78.94
63715;BME280;49858;48.956;9.076;2023-04-04T06:46:44;99584.28;;;5.14;77.24
63715;BME280;49858;48.956;9.076;2023-04-04T06:49:12;99571.78;;;5.41;76.40
63715;BME280;49858;48.956;9.076;2023-04-04T06:51:41;99576.38;;;5.86;76.30
63715;BME280;49858;48.956;9.076;2023-04-04T06:54:10;99588.06;;;5.46;76.90
63715;BME280;49858;48.956;9.076;2023-04-04T06:56:38;99583.78;;;6.13;74.33
63715;BME280;49858;48.956;9.076;2023-04-04T06:59:05;99585.72;;;6.27;72.03
63715;BME280;49858;48.956;9.076;2023-04-04T07:01:37;99586.50;;;6.27;72.01
63715;BME280;49858;48.956;9.076;2023-04-04T07:04:06;99582.13;;;6.76;70.29
63715;BME280;49858;48.956;9.076;2023-04-04T07:06:33;99572.06;;;7.08;68.55
63715;BME280;49858;48.956;9.076;2023-04-04T07:09:02;99578.06;;;6.87;67.64
63715;BME280;49858;48.956;9.076;2023-04-04T07:11:32;99577.72;;;5.75;77.43
63715;BME280;49858;48.956;9.076;2023-04-04T07:14:00;99581.06;;;6.00;71.88
63715;BME280;49858;48.956;9.076;2023-04-04T07:16:28;99578.56;;;6.53;69.75
63715;BME280;49858;48.956;9.076;2023-04-04T07:18:57;99574.16;;;5.61;72.66
63715;BME280;49858;48.956;9.076;2023-04-04T07:21:27;99583.41;;;6.93;65.96
63715;BME280;49858;48.956;9.076;2023-04-04T07:23:55;99577.53;;;7.08;65.43
63715;BME280;49858;48.956;9.076;2023-04-04T07:26:25;99578.75;;;6.57;65.47
63715;BME280;49858;48.956;9.076;2023-04-04T07:28:53;99575.72;;;7.88;61.35
63715;BME280;49858;48.956;9.076;2023-04-04T07:31:21;99577.91;;;6.70;67.01
63715;BME280;49858;48.956;9.076;2023-04-04T07:33:50;99572.50;;;7.86;58.43
63715;BME280;49858;48.956;9.076;2023-04-04T07:36:19;99568.69;;;7.33;60.84
63715;BME280;49858;48.956;9.076;2023-04-04T07:38:48;99576.47;;;7.17;57.98
63715;BME280;49858;48.956;9.076;2023-04-04T07:41:16;99571.13;;;7.35;55.16
63715;BME280;49858;48.956;9.076;2023-04-04T07:43:44;99571.00;;;7.17;57.86
63715;BME280;49858;48.956;9.076;2023-04-04T07:46:12;99573.78;;;7.88;52.69
63715;BME280;49858;48.956;9.076;2023-04-04T07:48:40;99568.91;;;7.85;54.69
63715;BME280;49858;48.956;9.076;2023-04-04T07:51:07;99576.13;;;7.73;53.10
63715;BME280;49858;48.956;9.076;2023-04-04T07:53:36;99573.03;;;8.05;53.63
63715;BME280;49858;48.956;9.076;2023-04-04T07:56:05;99568.28;;;8.37;51.28
63715;BME280;49858;48.956;9.076;2023-04-04T07:58:33;99564.78;;;7.97;51.41
63715;BME280;49858;48.956;9.076;2023-04-04T08:01:01;99574.13;;;8.61;50.75
63715;BME280;49858;48.956;9.076;2023-04-04T08:03:29;99566.06;;;8.74;50.33
63715;BME280;49858;48.956;9.076;2023-04-04T08:05:57;99564.63;;;8.76;48.32
63715;BME280;49858;48.956;9.076;2023-04-04T08:08:25;99561.03;;;8.41;51.21
63715;BME280;49858;48.956;9.076;2023-04-04T08:10:53;99563.06;;;8.27;49.56
63715;BME280;49858;48.956;9.076;2023-04-04T08:13:22;99562.84;;;8.72;49.58
63715;BME280;49858;48.956;9.076;2023-04-04T08:15:50;99559.06;;;9.28;48.62
63715;BME280;49858;48.956;9.076;2023-04-04T08:18:18;99558.25;;;9.28;50.58
63715;BME280;49858;48.956;9.076;2023-04-04T08:20:46;99556.50;;;9.23;48.51
63715;BME280;49858;48.956;9.076;2023-04-04T08:23:13;99550.44;;;9.56;48.80
63715;BME280;49858;48.956;9.076;2023-04-04T08:25:41;99560.19;;;9.27;48.52
63715;BME280;49858;48.956;9.076;2023-04-04T08:28:11;99551.50;;;9.08;47.94
63715;BME280;49858;48.956;9.076;2023-04-04T08:30:40;99555.50;;;9.28;47.98
63715;BME280;49858;48.956;9.076;2023-04-04T08:33:08;99565.38;;;9.11;47.86
63715;BME280;49858;48.956;9.076;2023-04-04T08:35:36;99556.00;;;9.21;48.75
63715;BME280;49858;48.956;9.076;2023-04-04T08:38:04;99562.97;;;9.10;47.81
63715;BME280;49858;48.956;9.076;2023-04-04T08:40:34;99562.81;;;9.70;45.82
63715;BME280;49858;48.956;9.076;2023-04-04T08:43:05;99563.88;;;9.78;45.67
63715;BME280;49858;48.956;9.076;2023-04-04T08:45:33;99561.84;;;10.34;46.72
63715;BME280;49858;48.956;9.076;2023-04-04T08:48:03;99558.75;;;9.68;48.44
63715;BME280;49858;48.956;9.076;2023-04-04T08:50:36;99561.38;;;10.03;47.90
63715;BME280;49858;48.956;9.076;2023-04-04T08:53:07;99558.84;;;10.18;44.56
63715;BME280;49858;48.956;9.076;2023-04-04T08:55:35;99563.41;;;10.44;43.12
63715;BME280;49858;48.956;9.076;2023-04-04T08:58:03;99562.66;;;10.77;44.73
63715;BME280;49858;48.956;9.076;2023-04-04T09:00:32;99553.97;;;11.41;43.66
63715;BME280;49858;48.956;9.076;2023-04-04T09:03:05;99564.78;;;10.59;46.27
63715;BME280;49858;48.956;9.076;2023-04-04T09:05:36;99558.00;;;11.43;43.13
63715;BME280;49858;48.956;9.076;2023-04-04T09:08:04;99552.06;;;11.54;40.89
63715;BME280;49858;48.956;9.076;2023-04-04T09:10:32;99558.63;;;12.35;40.49
63715;BME280;49858;48.956;9.076;2023-04-04T09:13:02;99564.94;;;11.29;40.25
63715;BME280;49858;48.956;9.076;2023-04-04T09:15:45;99560.31;;;11.66;40.60
63715;BME280;49858;48.956;9.076;2023-04-04T09:18:15;99564.06;;;11.82;41.08
63715;BME280;49858;48.956;9.076;2023-04-04T09:20:44;99561.53;;;10.57;41.90
63715;BME280;49858;48.956;9.076;2023-04-04T09:23:13;99560.28;;;9.57;42.09
63715;BME280;49858;48.956;9.076;2023-04-04T09:25:45;99553.66;;;11.55;40.16
63715;BME280;49858;48.956;9.076;2023-04-04T09:28:30;99555.44;;;12.08;39.48
63715;BME280;49858;48.956;9.076;2023-04-04T09:31:00;99557.63;;;12.02;37.83
63715;BME280;49858;48.956;9.076;2023-04-04T09:33:31;99556.25;;;12.33;36.15
63715;BME280;49858;48.956;9.076;2023-04-04T09:36:02;99553.38;;;12.17;37.20
63715;BME280;49858;48.956;9.076;2023-04-04T09:38:31;99554.19;;;11.93;38.20
63715;BME280;49858;48.956;9.076;2023-04-04T09:41:05;99556.56;;;12.32;36.31
63715;BME280;49858;48.956;9.076;2023-04-04T09:43:33;99549.38;;;12.67;37.97
63715;BME280;49858;48.956;9.076;2023-04-04T09:46:02;99544.75;;;12.19;38.39
63715;BME280;49858;48.956;9.076;2023-04-04T09:48:33;99550.50;;;13.07;37.39
63715;BME280;49858;48.956;9.076;2023-04-04T09:51:03;99543.16;;;12.98;37.13
63715;BME280;49858;48.956;9.076;2023-04-04T09:53:33;99549.56;;;12.22;35.35
63715;BME280;49858;48.956;9.076;2023-04-04T09:56:03;99553.03;;;12.07;38.15
63715;BME280;49858;48.956;9.076;2023-04-04T09:58:30;99549.84;;;12.97;36.96
63715;BME280;49858;48.956;9.076;2023-04-04T10:01:03;99552.81;;;13.33;34.00
63715;BME280;49858;48.956;9.076;2023-04-04T10:03:35;99553.47;;;12.09;38.61
63715;BME280;49858;48.956;9.076;2023-04-04T10:06:05;99557.31;;;12.97;36.30
63715;BME280;49858;48.956;9.076;2023-04-04T10:08:34;99551.00;;;12.56;35.91
63715;BME280;49858;48.956;9.076;2023-04-04T10:11:04;99551.94;;;13.16;35.04
63715;BME280;49858;48.956;9.076;2023-04-04T10:13:40;99546.75;;;14.06;33.34
63715;BME280;49858;48.956;9.076;2023-04-04T10:16:10;99540.19;;;14.46;34.90
63715;BME280;49858;48.956;9.076;2023-04-04T10:18:39;99540.44;;;14.56;32.51
63715;BME280;49858;48.956;9.076;2023-04-04T10:21:08;99542.34;;;15.11;32.77
63715;BME280;49858;48.956;9.076;2023-04-04T10:23:44;99535.00;;;14.79;32.92
63715;BME280;49858;48.956;9.076;2023-04-04T10:26:12;99541.84;;;14.15;34.96
63715;BME280;49858;48.956;9.076;2023-04-04T10:28:41;99538.59;;;14.29;31.46
63715;BME280;49858;48.956;9.076;2023-04-04T10:31:15;99533.72;;;15.58;31.60
63715;BME280;49858;48.956;9.076;2023-04-04T10:33:51;99528.03;;;15.28;30.50
63715;BME280;49858;48.956;9.076;2023-04-04T10:36:26;99540.72;;;14.16;32.95
63715;BME280;49858;48.956;9.076;2023-04-04T10:39:01;99528.34;;;15.46;31.99
63715;BME280;49858;48.956;9.076;2023-04-04T10:41:31;99525.56;;;17.01;29.20
63715;BME280;49858;48.956;9.076;2023-04-04T10:44:08;99521.00;;;15.76;31.29
63715;BME280;49858;48.956;9.076;2023-04-04T10:46:40;99524.13;;;16.24;31.68
63715;BME280;49858;48.956;9.076;2023-04-04T10:49:12;99522.13;;;15.98;31.32
63715;BME280;49858;48.956;9.076;2023-04-04T10:51:41;99515.63;;;15.87;31.94
63715;BME280;49858;48.956;9.076;2023-04-04T10:54:21;99517.31;;;17.49;30.17
63715;BME280;49858;48.956;9.076;2023-04-04T10:56:49;99517.13;;;17.72;28.80
63715;BME280;49858;48.956;9.076;2023-04-04T10:59:17;99517.53;;;18.19;26.45
63715;BME280;49858;48.956;9.076;2023-04-04T11:01:46;99510.13;;;18.41;26.80
63715;BME280;49858;48.956;9.076;2023-04-04T11:04:17;99510.28;;;18.10;26.99
63715;BME280;49858;48.956;9.076;2023-04-04T11:07:09;99508.63;;;18.64;25.51
63715;BME280;49858;48.956;9.076;2023-04-04T11:09:52;99510.81;;;19.03;25.47
63715;BME280;49858;48.956;9.076;2023-04-04T11:12:29;99501.16;;;18.79;26.57
63715;BME280;49858;48.956;9.076;2023-04-04T11:15:07;99497.16;;;18.70;25.12
63715;BME280;49858;48.956;9.076;2023-04-04T11:17:53;99498.34;;;18.06;27.12
63715;BME280;49858;48.956;9.076;2023-04-04T11:20:27;99500.53;;;17.83;27.29
63715;BME280;49858;48.956;9.076;2023-04-04T11:23:07;99505.41;;;17.11;29.57
63715;BME280;49858;48.956;9.076;2023-04-04T11:25:37;99496.84;;;18.20;27.16
63715;BME280;49858;48.956;9.076;2023-04-04T11:28:14;99490.59;;;18.37;26.04
63715;BME280;49858;48.956;9.076;2023-04-04T11:31:21;99492.78;;;18.10;29.51
63715;BME280;49858;48.956;9.076;2023-04-04T11:33:57;99494.31;;;18.00;27.51
63715;BME280;49858;48.956;9.076;2023-04-04T11:36:49;99494.63;;;18.47;27.22
63715;BME280;49858;48.956;9.076;2023-04-04T11:39:25;99483.09;;;18.52;24.57
63715;BME280;49858;48.956;9.076;2023-04-04T11:41:55;99493.06;;;18.49;26.41
63715;BME280;49858;48.956;9.076;2023-04-04T11:44:25;99480.44;;;18.70;24.03
63715;BME280;49858;48.956;9.076;2023-04-04T11:47:00;99484.56;;;18.28;26.64
63715;BME280;49858;48.956;9.076;2023-04-04T11:49:32;99480.16;;;19.07;24.55
63715;BME280;49858;48.956;9.076;2023-04-04T11:52:05;99471.78;;;19.03;25.95
63715;BME280;49858;48.956;9.076;2023-04-04T11:54:34;99477.91;;;18.47;25.51
63715;BME280;49858;48.956;9.076;2023-04-04T11:57:04;99473.69;;;17.16;26.36
63715;BME280;49858;48.956;9.076;2023-04-04T11:59:37;99473.94;;;17.00;28.50
63715;BME280;49858;48.956;9.076;2023-04-04T12:02:06;99460.56;;;17.57;25.88
63715;BME280;49858;48.956;9.076;2023-04-04T12:04:35;99469.72;;;18.09;26.71
63715;BME280;49858;48.956;9.076;2023-04-04T12:07:06;99471.56;;;18.50;26.72
63715;BME280;49858;48.956;9.076;2023-04-04T12:09:35;99469.97;;;17.01;28.82
63715;BME280;49858;48.956;9.076;2023-04-04T12:12:03;99468.59;;;17.66;27.00
63715;BME280;49858;48.956;9.076;2023-04-04T12:14:33;99467.47;;;18.33;25.02
63715;BME280;49858;48.956;9.076;2023-04-04T12:17:01;99461.56;;;17.35;26.72
63715;BME280;49858;48.956;9.076;2023-04-04T12:19:29;99468.81;;;18.68;26.59
63715;BME280;49858;48.956;9.076;2023-04-04T12:21:57;99465.38;;;18.16;27.33
63715;BME280;49858;48.956;9.076;2023-04-04T12:24:26;99457.22;;;17.82;28.67
63715;BME280;49858;48.956;9.076;2023-04-04T12:26:54;99449.13;;;18.25;25.97
63715;BME280;49858;48.956;9.076;2023-04-04T12:29:25;99452.09;;;17.02;28.49
63715;BME280;49858;48.956;9.076;2023-04-04T12:31:54;99441.69;;;17.33;27.49
63715;BME280;49858;48.956;9.076;2023-04-04T12:34:27;99444.03;;;17.27;28.17
63715;BME280;49858;48.956;9.076;2023-04-04T12:37:01;99449.13;;;17.66;27.34
63715;BME280;49858;48.956;9.076;2023-04-04T12:39:31;99462.84;;;16.70;29.08
63715;BME280;49858;48.956;9.076;2023-04-04T12:42:00;99447.22;;;16.58;27.27
63715;BME280;49858;48.956;9.076;2023-04-04T12:44:30;99443.38;;;17.96;28.73
63715;BME280;49858;48.956;9.076;2023-04-04T12:47:00;99440.25;;;17.98;28.81
63715;BME280;49858;48.956;9.076;2023-04-04T12:49:29;99445.47;;;17.58;28.63
63715;BME280;49858;48.956;9.076;2023-04-04T12:51:58;99437.31;;;18.46;26.24
63715;BME280;49858;48.956;9.076;2023-04-04T12:54:32;99436.00;;;17.67;29.05
63715;BME280;49858;48.956;9.076;2023-04-04T12:57:01;99438.72;;;17.59;28.58
63715;BME280;49858;48.956;9.076;2023-04-04T12:59:32;99428.63;;;17.37;28.30
63715;BME280;49858;48.956;9.076;2023-04-04T13:02:04;99426.25;;;17.39;27.72
63715;BME280;49858;48.956;9.076;2023-04-04T13:04:34;99429.94;;;17.54;27.52
63715;BME280;49858;48.956;9.076;2023-04-04T13:07:03;99422.34;;;17.47;28.53
63715;BME280;49858;48.956;9.076;2023-04-04T13:09:32;99414.69;;;16.25;28.60
63715;BME280;49858;48.956;9.076;2023-04-04T13:12:03;99427.28;;;16.49;30.57
63715;BME280;49858;48.956;9.076;2023-04-04T13:14:56;99431.94;;;16.42;30.22
63715;BME280;49858;48.956;9.076;2023-04-04T13:17:24;99428.03;;;16.76;28.35
63715;BME280;49858;48.956;9.076;2023-04-04T13:19:52;99419.53;;;17.03;29.10
63715;BME280;49858;48.956;9.076;2023-04-04T13:22:20;99431.44;;;17.00;28.82
63715;BME280;49858;48.956;9.076;2023-04-04T13:24:49;99414.28;;;16.91;26.39